sensor_id;sensor_type;location;lat;lon;timestamp;P1;durP1;ratioP1;P2;durP2;ratioP2
6197;SDS011;3132;42.622;23.328;2023-08-06T00:01:11;10.20;;;9.47;;
6197;SDS011;3132;42.622;23.328;2023-08-06T00:03:36;11.25;;;10.35;;
6197;SDS011;3132;42.622;23.328;2023-08-06T00:06:02;11.02;;;9.85;;
6197;SDS011;3132;42.622;23.328;2023-08-06T00:08:27;11.53;;;10.43;;
6197;SDS011;3132;42.622;23.328;2023-08-06T00:10:53;11.80;;;10.90;;
6197;SDS011;3132;42.622;23.328;2023-08-06T00:13:18;12.97;;;11.73;;
6197;SDS011;3132;42.622;23.328;2023-08-06T00:15:43;10.50;;;9.48;;
6197;SDS011;3132;42.622;23.328;2023-08-06T00:18:09;12.37;;;11.23;;
6197;SDS011;3132;42.622;23.328;2023-08-06T00:20:34;11.50;;;10.50;;
6197;SDS011;3132;42.622;23.328;2023-08-06T00:22:59;15.43;;;10.43;;
6197;SDS011;3132;42.622;23.328;2023-08-06T00:25:25;11.95;;;10.98;;
6197;SDS011;3132;42.622;23.328;2023-08-06T00:27:50;10.63;;;9.93;;
6197;SDS011;3132;42.622;23.328;2023-08-06T00:30:16;10.40;;;9.57;;
6197;SDS011;3132;42.622;23.328;2023-08-06T00:32:41;11.03;;;9.97;;
6197;SDS011;3132;42.622;23.328;2023-08-06T00:35:06;10.80;;;10.00;;
6197;SDS011;3132;42.622;23.328;2023-08-06T00:37:32;11.07;;;9.93;;
6197;SDS011;3132;42.622;23.328;2023-08-06T00:39:57;10.05;;;9.35;;
6197;SDS011;3132;42.622;23.328;2023-08-06T00:42:23;9.68;;;8.98;;
6197;SDS011;3132;42.622;23.328;2023-08-06T00:44:48;10.82;;;9.93;;
6197;SDS011;3132;42.622;23.328;2023-08-06T00:47:14;10.02;;;9.20;;
6197;SDS011;3132;42.622;23.328;2023-08-06T00:49:40;10.87;;;9.70;;
6197;SDS011;3132;42.622;23.328;2023-08-06T00:52:06;11.13;;;10.27;;
6197;SDS011;3132;42.622;23.328;2023-08-06T00:54:33;10.27;;;9.47;;
6197;SDS011;3132;42.622;23.328;2023-08-06T00:56:59;11.37;;;10.40;;
6197;SDS011;3132;42.622;23.328;2023-08-06T00:59:25;10.53;;;9.83;;
6197;SDS011;3132;42.622;23.328;2023-08-06T01:01:51;9.07;;;8.50;;
6197;SDS011;3132;42.622;23.328;2023-08-06T01:04:17;10.07;;;9.47;;
6197;SDS011;3132;42.622;23.328;2023-08-06T01:09:15;10.60;;;9.90;;
6197;SDS011;3132;42.622;23.328;2023-08-06T01:11:48;10.30;;;9.60;;
6197;SDS011;3132;42.622;23.328;2023-08-06T01:14:32;10.20;;;9.50;;
6197;SDS011;3132;42.622;23.328;2023-08-06T01:17:08;9.33;;;8.73;;
6197;SDS011;3132;42.622;23.328;2023-08-06T01:19:35;10.95;;;10.25;;
6197;SDS011;3132;42.622;23.328;2023-08-06T01:22:00;10.18;;;9.50;;
6197;SDS011;3132;42.622;23.328;2023-08-06T01:24:25;10.03;;;9.37;;
6197;SDS011;3132;42.622;23.328;2023-08-06T01:26:54;10.37;;;9.67;;
6197;SDS011;3132;42.622;23.328;2023-08-06T01:29:32;10.15;;;9.48;;
6197;SDS011;3132;42.622;23.328;2023-08-06T01:32:01;10.45;;;9.63;;
6197;SDS011;3132;42.622;23.328;2023-08-06T01:34:28;10.02;;;9.43;;
6197;SDS011;3132;42.622;23.328;2023-08-06T01:36:57;10.30;;;9.50;;
6197;SDS011;3132;42.622;23.328;2023-08-06T01:39:25;10.50;;;9.63;;
6197;SDS011;3132;42.622;23.328;2023-08-06T01:41:50;10.33;;;9.47;;
6197;SDS011;3132;42.622;23.328;2023-08-06T01:44:15;10.10;;;9.47;;
6197;SDS011;3132;42.622;23.328;2023-08-06T01:46:41;10.90;;;10.10;;
6197;SDS011;3132;42.622;23.328;2023-08-06T01:49:07;9.57;;;8.75;;
6197;SDS011;3132;42.622;23.328;2023-08-06T01:51:32;9.63;;;9.00;;
6197;SDS011;3132;42.622;23.328;2023-08-06T01:53:57;9.68;;;9.07;;
6197;SDS011;3132;42.622;23.328;2023-08-06T01:56:23;9.63;;;9.00;;
6197;SDS011;3132;42.622;23.328;2023-08-06T01:58:48;10.10;;;9.50;;
6197;SDS011;3132;42.622;23.328;2023-08-06T02:01:14;8.87;;;8.17;;
6197;SDS011;3132;42.622;23.328;2023-08-06T02:03:39;11.20;;;10.40;;
6197;SDS011;3132;42.622;23.328;2023-08-06T02:06:04;11.03;;;10.40;;
6197;SDS011;3132;42.622;23.328;2023-08-06T02:08:30;11.03;;;10.23;;
6197;SDS011;3132;42.622;23.328;2023-08-06T02:10:55;10.23;;;9.43;;
6197;SDS011;3132;42.622;23.328;2023-08-06T02:13:21;13.13;;;11.93;;
6197;SDS011;3132;42.622;23.328;2023-08-06T02:15:46;12.43;;;11.23;;
6197;SDS011;3132;42.622;23.328;2023-08-06T02:18:14;11.93;;;11.03;;
6197;SDS011;3132;42.622;23.328;2023-08-06T02:20:41;12.63;;;11.43;;
6197;SDS011;3132;42.622;23.328;2023-08-06T02:23:07;12.87;;;11.63;;
6197;SDS011;3132;42.622;23.328;2023-08-06T02:25:32;12.80;;;11.70;;
6197;SDS011;3132;42.622;23.328;2023-08-06T02:27:57;11.53;;;10.63;;
6197;SDS011;3132;42.622;23.328;2023-08-06T02:30:23;10.47;;;9.77;;
6197;SDS011;3132;42.622;23.328;2023-08-06T02:32:48;11.57;;;10.67;;
6197;SDS011;3132;42.622;23.328;2023-08-06T02:35:14;11.73;;;10.70;;
6197;SDS011;3132;42.622;23.328;2023-08-06T02:37:39;11.63;;;10.27;;
6197;SDS011;3132;42.622;23.328;2023-08-06T02:40:05;10.80;;;9.97;;
6197;SDS011;3132;42.622;23.328;2023-08-06T02:42:30;11.40;;;10.60;;
6197;SDS011;3132;42.622;23.328;2023-08-06T02:44:56;11.13;;;10.23;;
6197;SDS011;3132;42.622;23.328;2023-08-06T02:47:21;10.00;;;9.40;;
6197;SDS011;3132;42.622;23.328;2023-08-06T02:49:46;10.87;;;10.07;;
6197;SDS011;3132;42.622;23.328;2023-08-06T02:52:12;10.87;;;10.17;;
6197;SDS011;3132;42.622;23.328;2023-08-06T02:54:37;11.00;;;10.30;;
6197;SDS011;3132;42.622;23.328;2023-08-06T02:57:03;10.43;;;9.73;;
6197;SDS011;3132;42.622;23.328;2023-08-06T02:59:30;11.73;;;10.70;;
6197;SDS011;3132;42.622;23.328;2023-08-06T03:01:55;11.23;;;10.53;;
6197;SDS011;3132;42.622;23.328;2023-08-06T03:04:20;10.63;;;9.83;;
6197;SDS011;3132;42.622;23.328;2023-08-06T03:06:46;10.77;;;10.00;;
6197;SDS011;3132;42.622;23.328;2023-08-06T03:09:11;11.03;;;10.33;;
6197;SDS011;3132;42.622;23.328;2023-08-06T03:11:36;10.77;;;10.10;;
6197;SDS011;3132;42.622;23.328;2023-08-06T03:14:02;10.27;;;9.50;;
6197;SDS011;3132;42.622;23.328;2023-08-06T03:16:27;10.67;;;9.97;;
6197;SDS011;3132;42.622;23.328;2023-08-06T03:18:52;10.00;;;9.50;;
6197;SDS011;3132;42.622;23.328;2023-08-06T03:21:18;9.70;;;9.10;;
6197;SDS011;3132;42.622;23.328;2023-08-06T03:23:46;11.30;;;10.33;;
6197;SDS011;3132;42.622;23.328;2023-08-06T03:26:13;10.40;;;9.60;;
6197;SDS011;3132;42.622;23.328;2023-08-06T03:28:38;10.57;;;9.63;;
6197;SDS011;3132;42.622;23.328;2023-08-06T03:31:03;9.80;;;9.20;;
6197;SDS011;3132;42.622;23.328;2023-08-06T03:33:29;10.53;;;9.60;;
6197;SDS011;3132;42.622;23.328;2023-08-06T03:35:55;10.80;;;10.10;;
6197;SDS011;3132;42.622;23.328;2023-08-06T03:38:21;10.47;;;9.57;;
6197;SDS011;3132;42.622;23.328;2023-08-06T03:40:48;9.90;;;9.03;;
6197;SDS011;3132;42.622;23.328;2023-08-06T03:43:13;9.75;;;9.10;;
6197;SDS011;3132;42.622;23.328;2023-08-06T03:45:40;24.90;;;13.53;;
6197;SDS011;3132;42.622;23.328;2023-08-06T03:48:05;9.60;;;8.90;;
6197;SDS011;3132;42.622;23.328;2023-08-06T03:50:31;9.37;;;8.67;;
6197;SDS011;3132;42.622;23.328;2023-08-06T03:52:56;9.55;;;8.95;;
6197;SDS011;3132;42.622;23.328;2023-08-06T03:55:21;10.32;;;9.73;;
6197;SDS011;3132;42.622;23.328;2023-08-06T03:57:47;10.83;;;9.97;;
6197;SDS011;3132;42.622;23.328;2023-08-06T04:00:12;10.10;;;9.50;;
6197;SDS011;3132;42.622;23.328;2023-08-06T04:02:38;10.48;;;9.73;;
6197;SDS011;3132;42.622;23.328;2023-08-06T04:05:03;8.57;;;7.95;;
6197;SDS011;3132;42.622;23.328;2023-08-06T04:07:29;9.67;;;9.07;;
6197;SDS011;3132;42.622;23.328;2023-08-06T04:09:55;10.02;;;9.43;;
6197;SDS011;3132;42.622;23.328;2023-08-06T04:12:23;9.05;;;8.35;;
6197;SDS011;3132;42.622;23.328;2023-08-06T04:14:49;9.90;;;9.20;;
6197;SDS011;3132;42.622;23.328;2023-08-06T04:17:15;9.45;;;8.85;;
6197;SDS011;3132;42.622;23.328;2023-08-06T04:19:41;10.10;;;9.50;;
6197;SDS011;3132;42.622;23.328;2023-08-06T04:22:06;10.38;;;9.68;;
6197;SDS011;3132;42.622;23.328;2023-08-06T04:24:32;10.53;;;9.90;;
6197;SDS011;3132;42.622;23.328;2023-08-06T04:26:57;11.43;;;10.47;;
6197;SDS011;3132;42.622;23.328;2023-08-06T04:29:23;10.70;;;9.80;;
6197;SDS011;3132;42.622;23.328;2023-08-06T04:31:48;11.60;;;10.60;;
6197;SDS011;3132;42.622;23.328;2023-08-06T04:34:13;12.27;;;11.13;;
6197;SDS011;3132;42.622;23.328;2023-08-06T04:36:39;11.10;;;10.23;;
6197;SDS011;3132;42.622;23.328;2023-08-06T04:39:04;10.40;;;9.70;;
6197;SDS011;3132;42.622;23.328;2023-08-06T04:41:29;11.07;;;10.30;;
6197;SDS011;3132;42.622;23.328;2023-08-06T04:43:56;10.97;;;10.17;;
6197;SDS011;3132;42.622;23.328;2023-08-06T04:46:22;10.63;;;9.83;;
6197;SDS011;3132;42.622;23.328;2023-08-06T04:48:47;11.40;;;10.60;;
6197;SDS011;3132;42.622;23.328;2023-08-06T04:51:12;10.97;;;10.07;;
6197;SDS011;3132;42.622;23.328;2023-08-06T04:53:38;10.80;;;10.10;;
6197;SDS011;3132;42.622;23.328;2023-08-06T04:56:03;12.50;;;11.50;;
6197;SDS011;3132;42.622;23.328;2023-08-06T04:58:29;11.47;;;10.70;;
6197;SDS011;3132;42.622;23.328;2023-08-06T05:00:54;11.33;;;10.63;;
6197;SDS011;3132;42.622;23.328;2023-08-06T05:03:19;11.53;;;10.73;;
6197;SDS011;3132;42.622;23.328;2023-08-06T05:05:45;12.60;;;11.53;;
6197;SDS011;3132;42.622;23.328;2023-08-06T05:08:13;10.32;;;9.63;;
6197;SDS011;3132;42.622;23.328;2023-08-06T05:10:42;11.15;;;10.35;;
6197;SDS011;3132;42.622;23.328;2023-08-06T05:13:08;11.13;;;10.07;;
6197;SDS011;3132;42.622;23.328;2023-08-06T05:15:34;11.30;;;10.50;;
6197;SDS011;3132;42.622;23.328;2023-08-06T05:17:59;12.60;;;11.52;;
6197;SDS011;3132;42.622;23.328;2023-08-06T05:20:24;11.80;;;10.77;;
6197;SDS011;3132;42.622;23.328;2023-08-06T05:22:50;10.25;;;9.52;;
6197;SDS011;3132;42.622;23.328;2023-08-06T05:25:16;11.75;;;10.73;;
6197;SDS011;3132;42.622;23.328;2023-08-06T05:27:41;11.48;;;10.57;;
6197;SDS011;3132;42.622;23.328;2023-08-06T05:30:07;14.70;;;13.43;;
6197;SDS011;3132;42.622;23.328;2023-08-06T05:32:33;15.52;;;14.25;;
6197;SDS011;3132;42.622;23.328;2023-08-06T05:34:59;16.60;;;15.20;;
6197;SDS011;3132;42.622;23.328;2023-08-06T05:37:24;15.50;;;14.27;;
6197;SDS011;3132;42.622;23.328;2023-08-06T05:39:50;15.43;;;14.02;;
6197;SDS011;3132;42.622;23.328;2023-08-06T05:42:15;15.63;;;14.35;;
6197;SDS011;3132;42.622;23.328;2023-08-06T05:44:41;15.13;;;13.82;;
6197;SDS011;3132;42.622;23.328;2023-08-06T05:47:06;15.90;;;14.52;;
6197;SDS011;3132;42.622;23.328;2023-08-06T05:49:32;16.48;;;15.07;;
6197;SDS011;3132;42.622;23.328;2023-08-06T05:51:57;17.00;;;15.57;;
6197;SDS011;3132;42.622;23.328;2023-08-06T05:54:22;15.77;;;14.43;;
6197;SDS011;3132;42.622;23.328;2023-08-06T05:56:48;16.40;;;15.00;;
6197;SDS011;3132;42.622;23.328;2023-08-06T05:59:13;19.08;;;17.38;;
6197;SDS011;3132;42.622;23.328;2023-08-06T06:01:38;21.92;;;19.70;;
6197;SDS011;3132;42.622;23.328;2023-08-06T06:04:04;19.25;;;17.13;;
6197;SDS011;3132;42.622;23.328;2023-08-06T06:06:29;22.02;;;19.23;;
6197;SDS011;3132;42.622;23.328;2023-08-06T06:08:55;22.55;;;20.42;;
6197;SDS011;3132;42.622;23.328;2023-08-06T06:11:21;23.20;;;20.90;;
6197;SDS011;3132;42.622;23.328;2023-08-06T06:13:48;22.65;;;20.25;;
6197;SDS011;3132;42.622;23.328;2023-08-06T06:16:16;20.48;;;18.42;;
6197;SDS011;3132;42.622;23.328;2023-08-06T06:18:41;19.30;;;17.55;;
6197;SDS011;3132;42.622;23.328;2023-08-06T06:21:06;18.58;;;17.00;;
6197;SDS011;3132;42.622;23.328;2023-08-06T06:23:32;17.90;;;16.38;;
6197;SDS011;3132;42.622;23.328;2023-08-06T06:25:57;17.73;;;16.25;;
6197;SDS011;3132;42.622;23.328;2023-08-06T06:28:23;16.83;;;15.38;;
6197;SDS011;3132;42.622;23.328;2023-08-06T06:30:48;18.45;;;16.70;;
6197;SDS011;3132;42.622;23.328;2023-08-06T06:33:13;18.63;;;16.73;;
6197;SDS011;3132;42.622;23.328;2023-08-06T06:35:39;17.85;;;16.20;;
6197;SDS011;3132;42.622;23.328;2023-08-06T06:38:04;17.42;;;15.63;;
6197;SDS011;3132;42.622;23.328;2023-08-06T06:40:30;15.93;;;14.45;;
6197;SDS011;3132;42.622;23.328;2023-08-06T06:42:55;16.98;;;15.30;;
6197;SDS011;3132;42.622;23.328;2023-08-06T06:45:20;16.30;;;14.77;;
6197;SDS011;3132;42.622;23.328;2023-08-06T06:47:46;16.65;;;15.15;;
6197;SDS011;3132;42.622;23.328;2023-08-06T06:50:11;16.08;;;14.60;;
6197;SDS011;3132;42.622;23.328;2023-08-06T06:52:37;18.02;;;16.30;;
6197;SDS011;3132;42.622;23.328;2023-08-06T06:55:02;17.98;;;16.13;;
6197;SDS011;3132;42.622;23.328;2023-08-06T06:57:28;18.77;;;17.02;;
6197;SDS011;3132;42.622;23.328;2023-08-06T06:59:53;17.15;;;15.48;;
6197;SDS011;3132;42.622;23.328;2023-08-06T07:02:18;18.40;;;16.70;;
6197;SDS011;3132;42.622;23.328;2023-08-06T07:04:44;17.55;;;15.95;;
6197;SDS011;3132;42.622;23.328;2023-08-06T07:07:09;17.30;;;15.60;;
6197;SDS011;3132;42.622;23.328;2023-08-06T07:09:35;16.52;;;15.02;;
6197;SDS011;3132;42.622;23.328;2023-08-06T07:12:00;15.00;;;13.50;;
6197;SDS011;3132;42.622;23.328;2023-08-06T07:14:26;15.27;;;13.88;;
6197;SDS011;3132;42.622;23.328;2023-08-06T07:16:53;13.02;;;12.02;;
6197;SDS011;3132;42.622;23.328;2023-08-06T07:19:19;13.80;;;12.70;;
6197;SDS011;3132;42.622;23.328;2023-08-06T07:21:44;13.05;;;11.80;;
6197;SDS011;3132;42.622;23.328;2023-08-06T07:24:09;13.55;;;12.45;;
6197;SDS011;3132;42.622;23.328;2023-08-06T07:26:35;11.43;;;10.63;;
6197;SDS011;3132;42.622;23.328;2023-08-06T07:29:00;9.73;;;9.10;;
6197;SDS011;3132;42.622;23.328;2023-08-06T07:31:26;10.38;;;9.68;;
6197;SDS011;3132;42.622;23.328;2023-08-06T07:33:51;10.18;;;9.48;;
6197;SDS011;3132;42.622;23.328;2023-08-06T07:36:16;9.10;;;8.60;;
6197;SDS011;3132;42.622;23.328;2023-08-06T07:38:42;8.40;;;7.95;;
6197;SDS011;3132;42.622;23.328;2023-08-06T07:41:08;10.52;;;9.60;;
6197;SDS011;3132;42.622;23.328;2023-08-06T07:43:34;8.77;;;8.27;;
6197;SDS011;3132;42.622;23.328;2023-08-06T07:46:00;9.15;;;8.55;;
6197;SDS011;3132;42.622;23.328;2023-08-06T07:48:27;9.32;;;8.82;;
6197;SDS011;3132;42.622;23.328;2023-08-06T07:50:56;10.50;;;9.80;;
6197;SDS011;3132;42.622;23.328;2023-08-06T07:53:22;9.20;;;8.70;;
6197;SDS011;3132;42.622;23.328;2023-08-06T07:55:51;9.80;;;9.10;;
6197;SDS011;3132;42.622;23.328;2023-08-06T07:58:18;9.85;;;9.23;;
6197;SDS011;3132;42.622;23.328;2023-08-06T08:00:44;8.63;;;8.15;;
6197;SDS011;3132;42.622;23.328;2023-08-06T08:03:13;9.50;;;9.00;;
6197;SDS011;3132;42.622;23.328;2023-08-06T08:05:40;8.55;;;8.05;;
6197;SDS011;3132;42.622;23.328;2023-08-06T08:08:09;8.35;;;7.72;;
6197;SDS011;3132;42.622;23.328;2023-08-06T08:10:34;9.73;;;9.13;;
6197;SDS011;3132;42.622;23.328;2023-08-06T08:13:00;9.00;;;8.40;;
6197;SDS011;3132;42.622;23.328;2023-08-06T08:15:27;9.15;;;8.55;;
6197;SDS011;3132;42.622;23.328;2023-08-06T08:17:53;9.25;;;8.65;;
6197;SDS011;3132;42.622;23.328;2023-08-06T08:20:20;9.35;;;8.85;;
6197;SDS011;3132;42.622;23.328;2023-08-06T08:22:46;10.10;;;9.40;;
6197;SDS011;3132;42.622;23.328;2023-08-06T08:25:11;10.13;;;9.52;;
6197;SDS011;3132;42.622;23.328;2023-08-06T08:27:37;11.88;;;10.95;;
6197;SDS011;3132;42.622;23.328;2023-08-06T08:30:02;10.48;;;9.77;;
6197;SDS011;3132;42.622;23.328;2023-08-06T08:32:28;11.98;;;11.07;;
6197;SDS011;3132;42.622;23.328;2023-08-06T08:34:53;12.15;;;11.25;;
6197;SDS011;3132;42.622;23.328;2023-08-06T08:37:19;12.13;;;11.35;;
6197;SDS011;3132;42.622;23.328;2023-08-06T08:39:44;11.15;;;10.15;;
6197;SDS011;3132;42.622;23.328;2023-08-06T08:42:10;12.23;;;11.27;;
6197;SDS011;3132;42.622;23.328;2023-08-06T08:44:35;11.45;;;10.60;;
6197;SDS011;3132;42.622;23.328;2023-08-06T08:47:05;10.98;;;10.18;;
6197;SDS011;3132;42.622;23.328;2023-08-06T08:49:34;11.82;;;10.75;;
6197;SDS011;3132;42.622;23.328;2023-08-06T08:52:00;11.40;;;10.60;;
6197;SDS011;3132;42.622;23.328;2023-08-06T08:54:27;10.15;;;9.48;;
6197;SDS011;3132;42.622;23.328;2023-08-06T08:56:56;10.73;;;9.95;;
6197;SDS011;3132;42.622;23.328;2023-08-06T08:59:21;9.45;;;8.90;;
6197;SDS011;3132;42.622;23.328;2023-08-06T09:01:47;9.43;;;8.73;;
6197;SDS011;3132;42.622;23.328;2023-08-06T09:04:20;9.55;;;8.85;;
6197;SDS011;3132;42.622;23.328;2023-08-06T09:06:47;10.68;;;8.60;;
6197;SDS011;3132;42.622;23.328;2023-08-06T09:09:17;8.77;;;8.07;;
6197;SDS011;3132;42.622;23.328;2023-08-06T09:11:51;11.05;;;10.25;;
6197;SDS011;3132;42.622;23.328;2023-08-06T09:14:17;10.52;;;9.65;;
6197;SDS011;3132;42.622;23.328;2023-08-06T09:16:43;9.73;;;9.13;;
6197;SDS011;3132;42.622;23.328;2023-08-06T09:19:10;10.90;;;10.18;;
6197;SDS011;3132;42.622;23.328;2023-08-06T09:21:40;10.45;;;9.75;;
6197;SDS011;3132;42.622;23.328;2023-08-06T09:24:10;10.57;;;9.95;;
6197;SDS011;3132;42.622;23.328;2023-08-06T09:26:37;10.80;;;10.13;;
6197;SDS011;3132;42.622;23.328;2023-08-06T09:29:06;10.43;;;9.70;;
6197;SDS011;3132;42.622;23.328;2023-08-06T09:31:42;9.52;;;9.02;;
6197;SDS011;3132;42.622;23.328;2023-08-06T09:34:26;10.90;;;10.20;;
6197;SDS011;3132;42.622;23.328;2023-08-06T09:36:52;11.75;;;10.73;;
6197;SDS011;3132;42.622;23.328;2023-08-06T09:39:27;9.07;;;8.57;;
6197;SDS011;3132;42.622;23.328;2023-08-06T09:41:58;9.32;;;8.63;;
6197;SDS011;3132;42.622;23.328;2023-08-06T09:44:24;10.30;;;9.70;;
6197;SDS011;3132;42.622;23.328;2023-08-06T09:49:18;10.07;;;9.48;;
6197;SDS011;3132;42.622;23.328;2023-08-06T09:51:44;10.63;;;9.63;;
6197;SDS011;3132;42.622;23.328;2023-08-06T09:54:14;10.73;;;9.82;;
6197;SDS011;3132;42.622;23.328;2023-08-06T09:56:41;10.85;;;10.02;;
6197;SDS011;3132;42.622;23.328;2023-08-06T09:59:07;9.90;;;9.20;;
6197;SDS011;3132;42.622;23.328;2023-08-06T10:01:34;10.00;;;9.32;;
6197;SDS011;3132;42.622;23.328;2023-08-06T10:04:00;11.27;;;10.48;;
6197;SDS011;3132;42.622;23.328;2023-08-06T10:06:28;9.80;;;9.05;;
6197;SDS011;3132;42.622;23.328;2023-08-06T10:08:54;10.73;;;9.93;;
6197;SDS011;3132;42.622;23.328;2023-08-06T10:11:20;10.40;;;9.55;;
6197;SDS011;3132;42.622;23.328;2023-08-06T10:13:49;9.63;;;9.02;;
6197;SDS011;3132;42.622;23.328;2023-08-06T10:16:18;10.55;;;9.77;;
6197;SDS011;3132;42.622;23.328;2023-08-06T10:18:45;9.82;;;9.13;;
6197;SDS011;3132;42.622;23.328;2023-08-06T10:21:12;10.48;;;9.77;;
6197;SDS011;3132;42.622;23.328;2023-08-06T10:23:39;9.40;;;8.80;;
6197;SDS011;3132;42.622;23.328;2023-08-06T10:26:05;9.27;;;8.48;;
6197;SDS011;3132;42.622;23.328;2023-08-06T10:28:40;9.10;;;8.57;;
6197;SDS011;3132;42.622;23.328;2023-08-06T10:31:05;9.23;;;8.63;;
6197;SDS011;3132;42.622;23.328;2023-08-06T10:33:44;9.43;;;8.75;;
6197;SDS011;3132;42.622;23.328;2023-08-06T10:36:11;9.93;;;9.23;;
6197;SDS011;3132;42.622;23.328;2023-08-06T10:38:47;10.00;;;9.25;;
6197;SDS011;3132;42.622;23.328;2023-08-06T10:44:04;9.63;;;9.02;;
6197;SDS011;3132;42.622;23.328;2023-08-06T10:46:31;10.05;;;9.35;;
6197;SDS011;3132;42.622;23.328;2023-08-06T10:48:57;9.90;;;9.20;;
6197;SDS011;3132;42.622;23.328;2023-08-06T10:51:22;10.55;;;9.75;;
6197;SDS011;3132;42.622;23.328;2023-08-06T10:53:48;11.35;;;10.48;;
6197;SDS011;3132;42.622;23.328;2023-08-06T10:56:15;10.90;;;10.20;;
6197;SDS011;3132;42.622;23.328;2023-08-06T10:58:45;10.80;;;10.10;;
6197;SDS011;3132;42.622;23.328;2023-08-06T11:01:11;11.85;;;10.95;;
6197;SDS011;3132;42.622;23.328;2023-08-06T11:03:37;10.85;;;10.10;;
6197;SDS011;3132;42.622;23.328;2023-08-06T11:06:04;10.60;;;9.80;;
6197;SDS011;3132;42.622;23.328;2023-08-06T11:08:38;11.57;;;9.60;;
6197;SDS011;3132;42.622;23.328;2023-08-06T11:11:12;10.25;;;9.55;;
6197;SDS011;3132;42.622;23.328;2023-08-06T11:13:46;10.45;;;9.75;;
6197;SDS011;3132;42.622;23.328;2023-08-06T11:16:22;10.18;;;9.30;;
6197;SDS011;3132;42.622;23.328;2023-08-06T11:18:51;10.57;;;9.88;;
6197;SDS011;3132;42.622;23.328;2023-08-06T11:21:22;10.82;;;9.93;;
6197;SDS011;3132;42.622;23.328;2023-08-06T11:23:49;10.40;;;9.70;;
6197;SDS011;3132;42.622;23.328;2023-08-06T11:26:19;9.77;;;9.18;;
6197;SDS011;3132;42.622;23.328;2023-08-06T11:31:07;8.98;;;8.50;;
6197;SDS011;3132;42.622;23.328;2023-08-06T11:33:43;9.63;;;9.13;;
6197;SDS011;3132;42.622;23.328;2023-08-06T11:36:09;10.48;;;9.77;;
6197;SDS011;3132;42.622;23.328;2023-08-06T11:38:34;9.98;;;9.38;;
6197;SDS011;3132;42.622;23.328;2023-08-06T11:41:00;9.98;;;9.18;;
6197;SDS011;3132;42.622;23.328;2023-08-06T11:43:25;8.90;;;8.40;;
6197;SDS011;3132;42.622;23.328;2023-08-06T11:45:51;10.93;;;10.15;;
6197;SDS011;3132;42.622;23.328;2023-08-06T11:48:18;11.13;;;10.40;;
6197;SDS011;3132;42.622;23.328;2023-08-06T11:50:44;10.35;;;9.65;;
6197;SDS011;3132;42.622;23.328;2023-08-06T11:53:12;13.48;;;12.23;;
6197;SDS011;3132;42.622;23.328;2023-08-06T11:55:39;12.32;;;11.40;;
6197;SDS011;3132;42.622;23.328;2023-08-06T11:58:04;11.38;;;10.57;;
6197;SDS011;3132;42.622;23.328;2023-08-06T12:00:30;11.95;;;10.95;;
6197;SDS011;3132;42.622;23.328;2023-08-06T12:02:56;10.63;;;9.77;;
6197;SDS011;3132;42.622;23.328;2023-08-06T12:05:22;11.20;;;10.50;;
6197;SDS011;3132;42.622;23.328;2023-08-06T12:07:52;11.27;;;9.55;;
6197;SDS011;3132;42.622;23.328;2023-08-06T12:10:22;10.57;;;9.98;;
6197;SDS011;3132;42.622;23.328;2023-08-06T12:12:49;10.45;;;9.68;;
6197;SDS011;3132;42.622;23.328;2023-08-06T12:15:15;9.30;;;8.52;;
6197;SDS011;3132;42.622;23.328;2023-08-06T12:17:41;11.07;;;10.27;;
6197;SDS011;3132;42.622;23.328;2023-08-06T12:20:07;10.77;;;10.02;;
6197;SDS011;3132;42.622;23.328;2023-08-06T12:22:34;11.68;;;10.70;;
6197;SDS011;3132;42.622;23.328;2023-08-06T12:25:08;10.45;;;9.65;;
6197;SDS011;3132;42.622;23.328;2023-08-06T12:27:37;11.15;;;10.30;;
6197;SDS011;3132;42.622;23.328;2023-08-06T12:30:04;11.63;;;10.82;;
6197;SDS011;3132;42.622;23.328;2023-08-06T12:32:31;11.10;;;10.30;;
6197;SDS011;3132;42.622;23.328;2023-08-06T12:34:57;11.45;;;10.65;;
6197;SDS011;3132;42.622;23.328;2023-08-06T12:37:23;12.32;;;11.43;;
6197;SDS011;3132;42.622;23.328;2023-08-06T12:39:49;11.20;;;10.38;;
6197;SDS011;3132;42.622;23.328;2023-08-06T12:42:14;12.32;;;10.88;;
6197;SDS011;3132;42.622;23.328;2023-08-06T12:44:40;11.88;;;11.07;;
6197;SDS011;3132;42.622;23.328;2023-08-06T12:47:06;11.48;;;10.52;;
6197;SDS011;3132;42.622;23.328;2023-08-06T12:49:32;13.18;;;12.07;;
6197;SDS011;3132;42.622;23.328;2023-08-06T12:51:58;11.90;;;11.00;;
6197;SDS011;3132;42.622;23.328;2023-08-06T12:54:25;11.15;;;10.35;;
6197;SDS011;3132;42.622;23.328;2023-08-06T12:56:50;13.05;;;12.07;;
6197;SDS011;3132;42.622;23.328;2023-08-06T12:59:16;12.93;;;11.80;;
6197;SDS011;3132;42.622;23.328;2023-08-06T13:01:42;12.25;;;11.23;;
6197;SDS011;3132;42.622;23.328;2023-08-06T13:04:08;12.38;;;11.38;;
6197;SDS011;3132;42.622;23.328;2023-08-06T13:06:34;14.32;;;13.13;;
6197;SDS011;3132;42.622;23.328;2023-08-06T13:09:10;11.70;;;10.90;;
6197;SDS011;3132;42.622;23.328;2023-08-06T13:11:36;11.07;;;10.38;;
6197;SDS011;3132;42.622;23.328;2023-08-06T13:14:06;11.35;;;10.57;;
6197;SDS011;3132;42.622;23.328;2023-08-06T13:16:36;11.13;;;10.23;;
6197;SDS011;3132;42.622;23.328;2023-08-06T13:19:03;11.57;;;10.55;;
6197;SDS011;3132;42.622;23.328;2023-08-06T13:21:33;11.50;;;10.70;;
6197;SDS011;3132;42.622;23.328;2023-08-06T13:23:59;11.07;;;10.38;;
6197;SDS011;3132;42.622;23.328;2023-08-06T13:26:25;12.32;;;11.38;;
6197;SDS011;3132;42.622;23.328;2023-08-06T13:28:50;12.15;;;11.15;;
6197;SDS011;3132;42.622;23.328;2023-08-06T13:31:16;12.57;;;11.68;;
6197;SDS011;3132;42.622;23.328;2023-08-06T13:33:41;12.13;;;11.30;;
6197;SDS011;3132;42.622;23.328;2023-08-06T13:36:07;11.82;;;11.02;;
6197;SDS011;3132;42.622;23.328;2023-08-06T13:38:32;13.45;;;12.38;;
6197;SDS011;3132;42.622;23.328;2023-08-06T13:40:57;12.77;;;11.88;;
6197;SDS011;3132;42.622;23.328;2023-08-06T13:43:24;12.25;;;11.25;;
6197;SDS011;3132;42.622;23.328;2023-08-06T13:45:49;14.00;;;12.77;;
6197;SDS011;3132;42.622;23.328;2023-08-06T13:48:14;12.60;;;11.57;;
6197;SDS011;3132;42.622;23.328;2023-08-06T13:50:40;12.85;;;11.85;;
6197;SDS011;3132;42.622;23.328;2023-08-06T13:53:05;11.32;;;10.52;;
6197;SDS011;3132;42.622;23.328;2023-08-06T13:55:31;13.75;;;12.50;;
6197;SDS011;3132;42.622;23.328;2023-08-06T13:57:57;11.68;;;10.90;;
6197;SDS011;3132;42.622;23.328;2023-08-06T14:00:22;11.80;;;11.00;;
6197;SDS011;3132;42.622;23.328;2023-08-06T14:02:47;13.18;;;12.18;;
6197;SDS011;3132;42.622;23.328;2023-08-06T14:05:13;12.07;;;11.13;;
6197;SDS011;3132;42.622;23.328;2023-08-06T14:07:38;12.00;;;11.20;;
6197;SDS011;3132;42.622;23.328;2023-08-06T14:10:04;12.38;;;11.43;;
6197;SDS011;3132;42.622;23.328;2023-08-06T14:12:30;12.13;;;11.23;;
6197;SDS011;3132;42.622;23.328;2023-08-06T14:14:56;12.32;;;11.52;;
6197;SDS011;3132;42.622;23.328;2023-08-06T14:17:21;12.63;;;11.68;;
6197;SDS011;3132;42.622;23.328;2023-08-06T14:19:47;11.52;;;10.73;;
6197;SDS011;3132;42.622;23.328;2023-08-06T14:22:12;10.73;;;10.05;;
6197;SDS011;3132;42.622;23.328;2023-08-06T14:24:37;12.07;;;11.27;;
6197;SDS011;3132;42.622;23.328;2023-08-06T14:27:03;11.35;;;10.45;;
6197;SDS011;3132;42.622;23.328;2023-08-06T14:29:29;11.18;;;10.48;;
6197;SDS011;3132;42.622;23.328;2023-08-06T14:31:54;9.57;;;9.02;;
6197;SDS011;3132;42.622;23.328;2023-08-06T14:34:20;13.18;;;11.90;;
6197;SDS011;3132;42.622;23.328;2023-08-06T14:36:45;10.90;;;10.10;;
6197;SDS011;3132;42.622;23.328;2023-08-06T14:39:11;10.50;;;9.88;;
6197;SDS011;3132;42.622;23.328;2023-08-06T14:41:36;10.90;;;10.10;;
6197;SDS011;3132;42.622;23.328;2023-08-06T14:44:01;11.40;;;10.50;;
6197;SDS011;3132;42.622;23.328;2023-08-06T14:46:27;11.38;;;10.52;;
6197;SDS011;3132;42.622;23.328;2023-08-06T14:48:52;11.50;;;10.70;;